Time;durP1;ratioP1;P1;durP2;ratioP2;P2;SDS_P1;SDS_P2;PMS_P1;PMS_P2;Temp;Humidity;BMP_temperature;BMP_pressure;BME280_temperature;BME280_humidity;BME280_pressure;Samples;Min_cycle;Max_cycle;Signal;HPM_P1;HPM_P2
2023/09/22 00:00:44;;;;;;;6.97;5.13;;;;;;;-144.30;72.13;84668.94;5070725;28;20226;-60
2023/09/22 00:03:13;;;;;;;8.20;3.53;;;;;;;-144.30;72.27;84670.91;5070615;28;20668;-60
2023/09/22 00:05:40;;;;;;;4.97;3.40;;;;;;;-144.30;72.24;84682.84;5070944;28;20204;-59
2023/09/22 00:08:07;;;;;;;7.20;4.57;;;;;;;-144.30;72.30;84643.09;5070353;28;20245;-59
2023/09/22 00:10:34;;;;;;;15.35;8.38;;;;;;;-144.30;72.95;84672.91;5070494;28;20744;-59
2023/09/22 00:13:01;;;;;;;4.00;3.70;;;;;;;-144.30;73.24;84651.03;5070298;28;20230;-53
2023/09/22 00:15:29;;;;;;;10.05;8.45;;;;;;;-144.30;74.02;84692.78;5070553;28;20188;-54
2023/09/22 00:17:56;;;;;;;8.80;4.15;;;;;;;-144.30;74.26;84672.91;5070298;28;20223;-55
2023/09/22 00:20:23;;;;;;;3.85;3.50;;;;;;;-144.30;74.19;84702.72;5070407;28;20256;-54
2023/09/22 00:22:50;;;;;;;5.93;3.88;;;;;;;-144.30;73.87;84720.59;5069996;28;20196;-55
2023/09/22 00:25:17;;;;;;;7.95;5.18;;;;;;;-144.30;73.80;84676.88;5070577;28;20200;-60
2023/09/22 00:27:44;;;;;;;5.85;3.58;;;;;;;-144.30;73.69;84694.75;5070546;28;20602;-55
2023/09/22 00:30:12;;;;;;;6.05;3.63;;;;;;;-144.30;73.90;84686.81;5070050;28;20195;-55
2023/09/22 00:32:40;;;;;;;6.45;3.47;;;;;;;-144.30;74.03;84756.38;5070092;28;20742;-55
2023/09/22 00:35:10;;;;;;;3.95;3.55;;;;;;;-144.30;74.19;84696.75;5069886;28;20286;-55
2023/09/22 00:37:37;;;;;;;4.68;3.80;;;;;;;-144.30;73.97;84692.78;5069982;28;20196;-55
2023/09/22 00:40:05;;;;;;;4.13;3.72;;;;;;;-144.30;73.79;84708.66;5070034;28;20192;-55
2023/09/22 00:42:32;;;;;;;5.63;3.70;;;;;;;-144.30;74.28;84708.66;5070041;28;20192;-55
2023/09/22 00:44:59;;;;;;;5.93;4.43;;;;;;;-144.30;74.86;84706.69;5069871;28;20192;-54
2023/09/22 00:47:26;;;;;;;6.72;4.50;;;;;;;-144.30;74.81;84732.53;5070141;28;20200;-60
2023/09/22 00:49:55;;;;;;;7.28;4.78;;;;;;;-144.30;75.41;84760.34;5069249;28;20690;-55
2023/09/22 00:52:24;;;;;;;6.60;4.45;;;;;;;-144.30;75.80;84754.38;5069674;28;20266;-55
2023/09/22 00:54:51;;;;;;;9.93;5.45;;;;;;;-144.30;75.62;84700.72;5069571;28;20227;-60
2023/09/22 00:57:19;;;;;;;7.03;5.68;;;;;;;-144.30;75.62;84712.66;5069883;28;20203;-54
2023/09/22 00:59:47;;;;;;;7.15;5.32;;;;;;;-144.30;75.63;84726.56;5069889;28;20196;-54
2023/09/22 01:02:14;;;;;;;11.60;6.47;;;;;;;-144.30;75.55;84714.63;5069231;28;20202;-56
2023/09/22 01:04:41;;;;;;;8.20;7.35;;;;;;;-144.30;76.51;84764.31;5069496;28;20197;-55
2023/09/22 01:07:10;;;;;;;6.97;5.22;;;;;;;-144.30;77.12;84744.44;5069729;28;20192;-60
2023/09/22 01:09:38;;;;;;;8.45;5.20;;;;;;;-144.30;77.63;84768.31;5069209;28;20211;-59
2023/09/22 01:12:05;;;;;;;8.23;5.38;;;;;;;-144.30;77.88;84746.44;5069308;28;20200;-60
2023/09/22 01:14:32;;;;;;;9.85;6.22;;;;;;;-144.30;78.59;84764.31;5069515;28;20224;-59
2023/09/22 01:16:59;;;;;;;12.05;6.00;;;;;;;-144.30;79.25;84802.09;5069379;28;20200;-58
2023/09/22 01:19:26;;;;;;;11.93;5.63;;;;;;;-144.30;79.36;84792.16;5069293;28;20234;-55
2023/09/22 01:21:54;;;;;;;6.32;5.65;;;;;;;-144.30;79.32;84796.13;5069354;28;20672;-60
2023/09/22 01:24:21;;;;;;;18.05;9.00;;;;;;;-144.30;79.36;84804.06;5069399;28;20192;-55
2023/09/22 01:26:48;;;;;;;13.73;6.57;;;;;;;-144.30;79.89;84788.19;5069442;28;20195;-59
2023/09/22 01:29:15;;;;;;;8.48;5.20;;;;;;;-144.30;80.30;84831.91;5069399;28;20672;-60
2023/09/22 01:31:42;;;;;;;10.35;6.25;;;;;;;-144.30;80.63;84831.91;5069293;28;20199;-59
2023/09/22 01:34:10;;;;;;;6.85;5.97;;;;;;;-144.30;80.99;84829.91;5069098;28;20224;-55
2023/09/22 01:36:37;;;;;;;9.52;5.78;;;;;;;-144.30;81.11;84833.88;5069540;28;20605;-55
2023/09/22 01:39:09;;;;;;;11.10;5.82;;;;;;;-144.30;81.33;84816.00;5069174;28;20290;-60
2023/09/22 01:41:36;;;;;;;11.90;6.10;;;;;;;-144.30;81.38;84837.88;5069281;28;20200;-55
2023/09/22 01:44:03;;;;;;;12.27;6.45;;;;;;;-144.30;81.72;84843.84;5069297;28;20192;-59
2023/09/22 01:46:30;;;;;;;10.18;5.80;;;;;;;-144.30;81.78;84855.75;5069408;28;20283;-55
2023/09/22 01:48:57;;;;;;;9.07;5.88;;;;;;;-144.30;81.96;84845.81;5068981;28;20200;-55
2023/09/22 01:51:24;;;;;;;9.52;6.65;;;;;;;-144.30;81.94;84851.78;5069175;28;20206;-55
2023/09/22 01:53:51;;;;;;;5.88;5.32;;;;;;;-144.30;81.89;84863.72;5068835;28;20232;-60
2023/09/22 01:56:21;;;;;;;8.38;5.38;;;;;;;-144.30;81.81;84831.91;5069131;28;20203;-59
2023/09/22 01:58:49;;;;;;;6.72;5.15;;;;;;;-144.30;81.91;84837.88;5068957;28;20618;-54
2023/09/22 02:01:17;;;;;;;7.05;5.28;;;;;;;-144.30;82.33;84841.84;5069319;28;20203;-55
2023/09/22 02:03:44;;;;;;;7.72;5.40;;;;;;;-144.30;82.53;84847.81;5069298;28;20216;-55
2023/09/22 02:06:11;;;;;;;6.68;5.15;;;;;;;-144.30;82.51;84831.91;5068804;28;20204;-58
2023/09/22 02:08:38;;;;;;;9.77;4.72;;;;;;;-144.30;82.48;84837.88;5069240;28;20620;-59
2023/09/22 02:11:05;;;;;;;5.03;4.55;;;;;;;-144.30;82.76;84863.72;5068850;28;20203;-59
2023/09/22 02:13:33;;;;;;;8.02;4.25;;;;;;;-144.30;83.19;84883.59;5068733;28;20659;-59
2023/09/22 02:16:00;;;;;;;6.55;4.60;;;;;;;-144.30;83.75;84855.75;5068936;28;20200;-59
2023/09/22 02:18:27;;;;;;;6.05;4.70;;;;;;;-144.30;83.91;84871.66;5068761;28;20242;-55
2023/09/22 02:20:54;;;;;;;5.80;4.68;;;;;;;-144.30;83.63;84855.75;5070207;28;20202;-59
2023/09/22 02:23:21;;;;;;;4.55;4.10;;;;;;;-144.30;83.61;84879.59;5072792;28;20204;-59
2023/09/22 02:25:48;;;;;;;5.55;4.93;;;;;;;-144.30;83.29;84855.75;5072571;28;20303;-60
2023/09/22 02:28:15;;;;;;;9.55;5.28;;;;;;;-144.30;82.57;84827.94;5072598;28;20200;-59
2023/09/22 02:30:44;;;;;;;7.97;5.00;;;;;;;-144.30;82.64;84871.66;5072694;28;20196;-60
2023/09/22 02:33:10;;;;;;;8.00;4.68;;;;;;;-144.30;82.52;84861.72;5072235;28;20230;-60
2023/09/22 02:35:41;;;;;;;8.02;5.63;;;;;;;-144.30;82.40;84823.94;5072768;28;20589;-55
2023/09/22 02:38:08;;;;;;;7.43;5.38;;;;;;;-144.30;82.47;84857.75;5072191;28;20207;-59
2023/09/22 02:40:35;;;;;;;7.53;5.03;;;;;;;-144.30;82.57;84879.59;5072308;28;20295;-59
2023/09/22 02:43:03;;;;;;;7.93;5.05;;;;;;;-144.30;82.42;84899.47;5072163;28;20203;-60
2023/09/22 02:45:30;;;;;;;8.35;6.40;;;;;;;-144.30;82.56;84879.59;5072420;28;20811;-60
2023/09/22 02:47:58;;;;;;;9.10;5.22;;;;;;;-144.30;82.80;84883.59;5071923;28;20196;-54
2023/09/22 02:50:25;;;;;;;7.03;5.45;;;;;;;-144.30;83.05;84881.59;5072203;28;20195;-59
2023/09/22 02:52:52;;;;;;;6.15;4.68;;;;;;;-144.30;83.44;84887.56;5071954;28;20200;-59
2023/09/22 02:55:19;;;;;;;6.15;5.38;;;;;;;-144.30;84.17;84931.28;5071975;28;20242;-58
2023/09/22 02:57:47;;;;;;;6.55;4.40;;;;;;;-144.30;84.94;84945.19;5072054;28;20287;-59
2023/09/22 03:00:18;;;;;;;5.45;5.00;;;;;;;-144.30;85.54;84959.13;5072071;28;20585;-55
2023/09/22 03:02:45;;;;;;;6.95;5.22;;;;;;;-144.30;86.01;84945.19;5071953;28;20571;-55
2023/09/22 03:05:15;;;;;;;7.55;4.93;;;;;;;-144.30;86.63;84977.00;5071736;28;20206;-55
2023/09/22 03:07:42;;;;;;;7.35;5.28;;;;;;;-144.30;86.56;84967.06;5071738;28;20242;-55
2023/09/22 03:10:10;;;;;;;10.43;4.97;;;;;;;-144.30;86.06;84961.09;5071689;28;20200;-54
2023/09/22 03:12:38;;;;;;;7.32;4.93;;;;;;;-144.30;86.27;84994.91;5071997;28;20200;-55
2023/09/22 03:15:09;;;;;;;8.50;4.93;;;;;;;-144.30;86.15;84939.25;5071397;28;20219;-56
2023/09/22 03:17:36;;;;;;;11.63;4.75;;;;;;;-144.30;86.16;84949.19;5071669;28;20206;-55
2023/09/22 03:20:06;;;;;;;6.85;4.68;;;;;;;-144.30;86.05;84939.25;5071261;28;20204;-55
2023/09/22 03:22:36;;;;;;;8.45;5.65;;;;;;;-144.30;86.05;84889.53;5071916;28;20192;-55
2023/09/22 03:25:04;;;;;;;12.18;5.40;;;;;;;-144.30;86.58;84935.25;5071483;28;20204;-54
2023/09/22 03:27:33;;;;;;;8.27;5.80;;;;;;;-144.30;86.50;84925.31;5069843;28;20279;-60
2023/09/22 03:30:00;;;;;;;18.13;5.85;;;;;;;-144.30;86.37;84963.09;5070566;28;20231;-60
2023/09/22 03:32:27;;;;;;;9.52;6.20;;;;;;;-144.30;86.79;84979.00;5070325;28;20278;-59
2023/09/22 03:34:54;;;;;;;9.48;5.68;;;;;;;-144.30;87.23;84931.28;5069251;28;20222;-59
2023/09/22 03:37:22;;;;;;;10.85;6.47;;;;;;;-144.30;87.55;84965.06;5069718;28;20207;-60
2023/09/22 03:39:51;;;;;;;8.65;6.40;;;;;;;-144.30;88.26;85006.81;5070136;28;20200;-57
2023/09/22 03:42:18;;;;;;;10.20;6.53;;;;;;;-144.30;88.41;85386.50;5070094;28;20196;-59
2023/09/22 03:44:45;;;;;;;13.10;6.80;;;;;;;-144.30;88.13;84963.09;5069730;28;20188;-59
2023/09/22 03:47:12;;;;;;;9.00;6.78;;;;;;;-144.30;88.30;85044.59;5069724;28;20228;-59
2023/09/22 03:49:39;;;;;;;9.55;6.90;;;;;;;-144.30;88.69;85026.69;5069620;28;20342;-54
2023/09/22 03:52:06;;;;;;;8.55;6.78;;;;;;;-144.30;88.39;84998.88;5063846;28;20669;-55
2023/09/22 03:54:33;;;;;;;9.00;7.28;;;;;;;-144.30;88.60;85004.84;5069143;28;20231;-59
2023/09/22 03:57:01;;;;;;;12.88;7.22;;;;;;;-144.30;88.77;84996.88;5069374;28;20202;-59
2023/09/22 03:59:29;;;;;;;12.63;7.50;;;;;;;-144.30;89.07;85008.81;5069683;28;20192;-59
2023/09/22 04:01:56;;;;;;;11.38;7.32;;;;;;;-144.30;89.37;85010.78;5069039;28;20581;-56
2023/09/22 04:04:23;;;;;;;13.70;7.07;;;;;;;-144.30;89.15;85010.78;5069401;28;20192;-55
2023/09/22 04:06:50;;;;;;;12.23;7.35;;;;;;;-144.30;89.01;85008.81;5069684;28;20228;-59
2023/09/22 04:09:17;;;;;;;12.55;7.80;;;;;;;-144.30;89.20;85032.66;5068692;28;20291;-60
2023/09/22 04:11:44;;;;;;;22.27;7.72;;;;;;;-144.30;89.86;85048.56;5069214;28;20646;-60
2023/09/22 04:14:12;;;;;;;16.38;8.57;;;;;;;-144.30;89.98;85060.50;5069056;28;20230;-60
2023/09/22 04:16:39;;;;;;;9.63;7.50;;;;;;;-144.30;89.93;85032.66;5069294;28;20222;-59
2023/09/22 04:19:09;;;;;;;11.18;8.40;;;;;;;-144.30;89.88;85058.50;5069512;28;20219;-58
2023/09/22 04:21:42;;;;;;;13.90;8.18;;;;;;;-144.30;90.32;84998.88;5069836;28;20275;-57
2023/09/22 04:24:11;;;;;;;13.43;8.30;;;;;;;-144.30;89.95;85054.53;5063504;28;20196;-56
2023/09/22 04:26:42;;;;;;;23.13;11.82;;;;;;;-144.30;89.54;84998.88;5067640;28;20203;-56
2023/09/22 04:29:10;;;;;;;13.32;8.48;;;;;;;-144.30;89.40;84951.16;5069623;28;20196;-56
2023/09/22 04:31:38;;;;;;;12.05;8.23;;;;;;;-144.30;88.81;84996.88;5069695;28;20621;-56
2023/09/22 04:34:05;;;;;;;11.38;7.85;;;;;;;-144.30;88.21;84986.94;5069204;28;20192;-56
2023/09/22 04:36:32;;;;;;;8.98;7.70;;;;;;;-144.30;87.55;84977.00;5069076;28;20208;-55
2023/09/22 04:39:00;;;;;;;14.10;7.78;;;;;;;-144.30;87.29;84963.09;5069609;28;20191;-55
2023/09/22 04:41:27;;;;;;;12.77;8.13;;;;;;;-144.30;86.72;84959.13;5069135;28;20676;-55
2023/09/22 04:43:54;;;;;;;12.55;9.32;;;;;;;-144.30;86.09;84927.31;5068222;28;20676;-55
2023/09/22 04:46:22;;;;;;;20.45;8.77;;;;;;;-144.30;85.47;84895.50;5069780;28;20199;-55
2023/09/22 04:48:51;;;;;;;13.10;8.90;;;;;;;-144.30;84.55;84901.47;5070038;28;20592;-55
2023/09/22 04:51:19;;;;;;;13.63;9.52;;;;;;;-144.30;84.19;84901.47;5069575;28;20192;-55
2023/09/22 04:53:47;;;;;;;12.50;9.07;;;;;;;-144.30;83.68;84883.59;5069948;28;20195;-55
2023/09/22 04:56:14;;;;;;;14.93;8.80;;;;;;;-144.30;83.17;84891.53;5069529;28;20277;-54
2023/09/22 04:58:41;;;;;;;16.70;10.00;;;;;;;-144.30;83.05;84863.72;5070180;28;20668;-55
2023/09/22 05:01:08;;;;;;;18.05;9.27;;;;;;;-144.30;82.25;84831.91;5069572;28;20684;-55
2023/09/22 05:03:35;;;;;;;17.27;9.15;;;;;;;-144.30;81.82;84823.94;5069213;28;20196;-55
2023/09/22 05:06:09;;;;;;;15.82;9.68;;;;;;;-144.30;81.48;84800.09;5068481;28;20586;-54
2023/09/22 05:08:37;;;;;;;13.15;9.07;;;;;;;-144.30;81.36;84839.84;5069244;28;20199;-54
2023/09/22 05:11:05;;;;;;;10.57;9.15;;;;;;;-144.30;80.92;84780.22;5069122;28;20200;-54
2023/09/22 05:13:32;;;;;;;18.40;9.70;;;;;;;-144.30;80.13;84798.13;5069324;28;20195;-55
2023/09/22 05:16:08;;;;;;;16.02;10.00;;;;;;;-144.30;78.15;84710.66;5068871;28;20276;-54
2023/09/22 05:18:35;;;;;;;16.10;8.95;;;;;;;-144.30;74.83;84579.50;5069422;28;20228;-55
2023/09/22 05:21:02;;;;;;;14.00;8.98;;;;;;;-144.30;71.34;84444.34;5067698;28;20223;-55
2023/09/22 05:23:32;;;;;;;21.52;8.93;;;;;;;-144.30;67.24;84307.22;5068796;28;20238;-60
2023/09/22 05:25:59;;;;;;;21.00;8.30;;;;;;;-144.30;64.10;84191.94;5066453;28;20660;-61
2023/09/22 05:28:26;;;;;;;22.55;10.25;;;;;;;-144.30;60.89;84104.50;5068766;28;20200;-60
2023/09/22 05:30:53;;;;;;;14.93;9.27;;;;;;;-144.30;58.66;83965.41;5068549;28;20285;-61
2023/09/22 05:33:20;;;;;;;14.13;9.02;;;;;;;-144.30;54.92;83820.34;5068668;28;20192;-61
2023/09/22 05:35:47;;;;;;;17.45;8.50;;;;;;;-144.30;53.38;83691.19;5066609;28;20223;-54
2023/09/22 05:38:14;;;;;;;16.58;8.15;;;;;;;-144.30;50.65;83631.59;5064044;28;20292;-55
2023/09/22 05:40:43;;;;;;;14.45;7.78;;;;;;;-144.30;49.41;83572.00;5066217;28;20235;-55
2023/09/22 05:43:12;;;;;;;10.07;7.68;;;;;;;-144.30;48.26;83436.88;5068752;28;20215;-54
2023/09/22 05:45:39;;;;;;;11.35;7.05;;;;;;;-144.30;46.05;83279.94;5067631;28;20201;-60
2023/09/22 05:48:07;;;;;;;13.10;7.03;;;;;;;-144.30;44.45;83111.06;5063803;28;20199;-60
2023/09/22 05:50:35;;;;;;;16.75;7.63;;;;;;;-144.30;42.96;82968.03;5068709;28;20196;-59
2023/09/22 05:53:01;;;;;;;11.48;7.28;;;;;;;-144.30;42.04;82950.16;5068635;28;20589;-59
2023/09/22 05:55:30;;;;;;;11.40;7.88;;;;;;;-144.30;41.46;82842.88;5071547;28;20784;-60
2023/09/22 05:57:58;;;;;;;12.48;7.70;;;;;;;-144.30;40.21;82739.56;5072960;28;20204;-61
2023/09/22 06:00:27;;;;;;;14.90;7.75;;;;;;;-144.30;39.59;82787.25;5072303;28;20196;-60
2023/09/22 06:02:54;;;;;;;9.70;6.70;;;;;;;-144.30;39.51;82709.78;5060143;28;20466;-61
2023/09/22 06:05:22;;;;;;;12.30;6.95;;;;;;;-144.30;38.97;82628.34;5051499;28;20207;-61
2023/09/22 06:07:49;;;;;;;9.70;7.07;;;;;;;-144.30;37.79;82479.38;5052117;28;20196;-60
2023/09/22 06:10:17;;;;;;;14.10;6.78;;;;;;;-144.30;36.83;82308.56;5056514;28;20197;-61
2023/09/22 06:12:44;;;;;;;11.90;6.10;;;;;;;-144.30;36.12;82316.50;5069264;28;20203;-60
2023/09/22 06:15:13;;;;;;;13.13;6.45;;;;;;;-144.30;35.05;82098.03;5071157;28;20207;-61
2023/09/22 06:17:40;;;;;;;14.68;6.28;;;;;;;-144.30;35.15;82223.16;5071787;28;20281;-60
2023/09/22 06:20:13;;;;;;;7.50;5.47;;;;;;;-144.30;35.05;82239.03;5067502;28;20203;-56
2023/09/22 06:22:40;;;;;;;11.65;6.13;;;;;;;-144.30;34.65;82078.16;5068334;28;20588;-62
2023/09/22 06:25:09;;;;;;;12.13;6.93;;;;;;;-144.30;33.92;81998.72;5069157;28;20191;-62
2023/09/22 06:27:36;;;;;;;10.70;5.03;;;;;;;-144.30;33.73;82002.69;5071538;28;20196;-63
2023/09/22 06:30:10;;;;;;;6.50;5.00;;;;;;;-144.30;33.61;81964.97;5072695;28;20282;-56
2023/09/22 06:32:42;;;;;;;8.82;5.45;;;;;;;-144.30;34.45;82147.69;5068390;28;20197;-62
2023/09/22 06:35:10;;;;;;;8.00;5.78;;;;;;;-144.30;34.08;82086.13;5067110;28;20247;-62
2023/09/22 06:37:37;;;;;;;11.23;5.57;;;;;;;-144.30;33.88;82060.28;5072797;28;20207;-62
2023/09/22 06:40:10;;;;;;;9.75;5.80;;;;;;;-144.30;33.70;82014.63;5072326;28;20196;-56
2023/09/22 06:42:38;;;;;;;12.60;4.95;;;;;;;-144.30;34.52;82215.22;5072507;28;20568;-57
2023/09/22 06:45:09;;;;;;;6.75;5.20;;;;;;;-144.30;33.88;82040.44;5071949;28;20245;-57
2023/09/22 06:47:38;;;;;;;9.73;5.28;;;;;;;-144.30;33.53;81957.03;5072417;28;20204;-55
2023/09/22 06:50:07;;;;;;;6.95;4.80;;;;;;;-144.30;33.67;82006.69;5071894;28;20200;-61
2023/09/22 06:52:35;;;;;;;6.25;4.60;;;;;;;-144.30;33.60;82006.69;5071962;28;20202;-55
2023/09/22 06:55:02;;;;;;;6.38;5.15;;;;;;;-144.30;33.50;81895.47;5071610;28;20220;-57
2023/09/22 06:57:30;;;;;;;11.07;5.38;;;;;;;-144.30;32.78;81738.56;5072035;28;20195;-56
2023/09/22 06:59:56;;;;;;;11.65;5.43;;;;;;;-144.30;32.23;81653.19;5072060;28;20214;-62
2023/09/22 07:02:23;;;;;;;5.28;4.85;;;;;;;-144.30;31.82;81641.28;5072082;28;20199;-62
2023/09/22 07:04:52;;;;;;;9.68;5.28;;;;;;;-144.30;31.50;81498.31;5072248;28;20630;-63
2023/09/22 07:07:19;;;;;;;5.55;4.95;;;;;;;-144.30;30.61;81315.63;5070802;28;20703;-56
2023/09/22 07:09:46;;;;;;;9.02;5.20;;;;;;;-144.30;30.65;81242.16;5072092;28;20645;-62
2023/09/22 07:12:13;;;;;;;7.05;5.75;;;;;;;-144.30;29.93;81160.75;5071836;28;20668;-62
2023/09/22 07:14:40;;;;;;;5.63;5.22;;;;;;;-144.30;29.78;81144.88;5071531;28;20233;-56
2023/09/22 07:17:07;;;;;;;8.40;4.70;;;;;;;-144.30;29.51;81017.78;5071437;28;20203;-55
2023/09/22 07:19:39;;;;;;;10.48;5.72;;;;;;;-144.30;28.74;80797.41;5071513;28;20231;-56
2023/09/22 07:22:08;;;;;;;5.10;4.70;;;;;;;-144.30;28.83;80737.88;5071161;28;20193;-62
2023/09/22 07:24:35;;;;;;;7.05;5.53;;;;;;;-144.30;28.39;80604.84;5071716;28;20625;-56
2023/09/22 07:27:02;;;;;;;4.97;4.57;;;;;;;-144.30;28.85;80811.31;5071125;28;20195;-62
2023/09/22 07:29:29;;;;;;;7.07;5.03;;;;;;;-144.30;29.02;80837.13;5071230;28;20191;-55
2023/09/22 07:31:56;;;;;;;7.72;3.95;;;;;;;-144.30;29.06;80934.41;5071751;28;20206;-63
2023/09/22 07:34:23;;;;;;;8.18;4.65;;;;;;;-144.30;28.83;80843.09;5071291;28;20570;-63
2023/09/22 07:36:50;;;;;;;5.43;4.13;;;;;;;-144.30;28.29;80686.25;5071291;28;20219;-63
2023/09/22 07:39:18;;;;;;;8.40;4.85;;;;;;;-144.30;27.88;80557.22;5070652;28;20201;-62
2023/09/22 07:41:46;;;;;;;7.22;4.40;;;;;;;-144.30;28.49;80827.19;5071224;28;20568;-62
2023/09/22 07:44:14;;;;;;;5.18;4.65;;;;;;;-144.30;28.49;80749.78;5071049;28;20203;-62
2023/09/22 07:46:41;;;;;;;7.70;4.72;;;;;;;-144.30;29.19;81049.56;5071084;28;20199;-62
2023/09/22 07:49:08;;;;;;;7.18;4.70;;;;;;;-144.30;30.11;81267.97;5070759;28;20195;-64
2023/09/22 07:51:35;;;;;;;9.32;4.82;;;;;;;-144.30;30.87;81514.19;5070595;28;20634;-62
2023/09/22 07:54:02;;;;;;;6.03;4.97;;;;;;;-144.30;32.29;81829.94;5067565;28;20197;-62
2023/09/22 07:56:30;;;;;;;8.40;4.88;;;;;;;-144.30;34.04;82221.16;5070297;28;20215;-55
2023/09/22 07:58:58;;;;;;;10.18;5.78;;;;;;;-144.30;35.79;82507.19;5070490;28;20202;-55
2023/09/22 08:01:25;;;;;;;10.75;5.43;;;;;;;-144.30;37.50;82695.88;5070675;28;20204;-55
2023/09/22 08:03:52;;;;;;;7.68;5.38;;;;;;;-144.30;39.07;82848.84;5071204;28;20872;-55
2023/09/22 08:06:19;;;;;;;9.68;5.07;;;;;;;-144.30;40.37;83047.50;5070664;28;20584;-56
2023/09/22 08:08:49;;;;;;;7.15;5.07;;;;;;;-144.30;41.76;83103.13;5070893;28;20291;-61
2023/09/22 08:11:17;;;;;;;6.28;5.68;;;;;;;-144.30;42.92;83262.03;5070552;28;20195;-61
2023/09/22 08:13:45;;;;;;;6.03;5.45;;;;;;;-144.30;43.51;83279.94;5070691;28;20214;-61
2023/09/22 08:16:13;;;;;;;8.80;6.00;;;;;;;-144.30;44.70;83367.34;5070439;28;20223;-61
2023/09/22 08:18:40;;;;;;;8.25;5.18;;;;;;;-144.30;45.32;83329.59;5070341;28;20231;-61
2023/09/22 08:21:07;;;;;;;9.55;5.38;;;;;;;-144.30;46.43;83468.66;5070173;28;20274;-60
2023/09/22 08:23:34;;;;;;;7.30;6.07;;;;;;;-144.30;46.97;83512.38;5070417;28;20196;-61
2023/09/22 08:26:05;;;;;;;6.97;5.97;;;;;;;-144.30;47.08;83494.50;5070406;28;20274;-55
2023/09/22 08:28:32;;;;;;;11.73;7.13;;;;;;;-144.30;47.71;83512.38;5070200;28;20283;-56
2023/09/22 08:31:01;;;;;;;6.15;5.75;;;;;;;-144.30;48.47;83589.88;5069488;28;20200;-55
2023/09/22 08:33:29;;;;;;;10.85;6.15;;;;;;;-144.30;49.46;83677.28;5070473;28;20218;-55
2023/09/22 08:35:56;;;;;;;9.18;5.80;;;;;;;-144.30;49.73;83621.66;5070206;28;20228;-55
2023/09/22 08:38:24;;;;;;;9.00;5.88;;;;;;;-144.30;49.51;83667.34;5069959;28;20202;-55
2023/09/22 08:40:52;;;;;;;8.43;6.82;;;;;;;-144.30;49.75;83671.34;5070136;28;20200;-61
2023/09/22 08:43:19;;;;;;;10.15;7.10;;;;;;;-144.30;50.35;83701.13;5069803;28;20321;-61
2023/09/22 08:45:46;;;;;;;9.57;7.10;;;;;;;-144.30;50.45;83687.22;5069951;28;20212;-56
2023/09/22 08:48:14;;;;;;;9.68;6.55;;;;;;;-144.30;50.04;83707.09;5069671;28;20196;-61
2023/09/22 08:50:41;;;;;;;9.48;7.07;;;;;;;-144.30;50.36;83651.47;5070075;28;20202;-55
2023/09/22 08:53:08;;;;;;;12.38;9.63;;;;;;;-144.30;50.87;83760.75;5069694;28;20218;-61
2023/09/22 08:55:35;;;;;;;9.80;8.82;;;;;;;-144.30;50.83;83717.03;5069762;28;20296;-55
2023/09/22 08:58:02;;;;;;;9.30;6.68;;;;;;;-144.30;51.02;83748.81;5069382;28;20199;-57
2023/09/22 09:00:30;;;;;;;9.20;7.15;;;;;;;-144.30;50.33;83695.19;5069906;28;20192;-61
2023/09/22 09:02:59;;;;;;;10.95;6.63;;;;;;;-144.30;50.03;83679.28;5069995;28;20199;-61
2023/09/22 09:05:29;;;;;;;21.50;6.25;;;;;;;-144.30;50.29;83701.13;5069813;28;20196;-61
2023/09/22 09:07:57;;;;;;;11.70;6.25;;;;;;;-144.30;49.97;83689.22;5069767;28;20200;-54
2023/09/22 09:10:29;;;;;;;9.38;7.18;;;;;;;-144.30;49.36;83611.72;5069296;28;20203;-56
2023/09/22 09:12:57;;;;;;;19.73;7.03;;;;;;;-144.30;49.14;83653.44;5069484;28;20200;-55
2023/09/22 09:15:26;;;;;;;12.60;6.25;;;;;;;-144.30;48.59;83595.81;5069668;28;20665;-56
2023/09/22 09:18:04;;;;;;;8.98;5.78;;;;;;;-144.30;48.82;83621.66;5069520;28;20719;-61
2023/09/22 09:20:34;;;;;;;12.85;6.10;;;;;;;-144.30;48.25;83583.91;5069532;28;20202;-55
2023/09/22 09:23:12;;;;;;;10.65;6.25;;;;;;;-144.30;48.30;83615.69;5069461;28;20199;-56
2023/09/22 09:25:44;;;;;;;11.50;6.10;;;;;;;-144.30;48.82;83611.72;5068474;28;20192;-55
2023/09/22 09:28:13;;;;;;;22.33;7.10;;;;;;;-144.30;48.71;83575.97;5069025;28;20200;-56
2023/09/22 09:30:48;;;;;;;12.48;6.30;;;;;;;-144.30;48.06;83478.59;5068826;28;20207;-61
2023/09/22 09:33:15;;;;;;;12.50;5.43;;;;;;;-144.30;47.95;83564.03;5068810;28;20520;-62
2023/09/22 09:35:44;;;;;;;6.82;5.25;;;;;;;-144.30;47.43;83556.09;5069470;28;20687;-61
2023/09/22 09:38:13;;;;;;;8.32;5.15;;;;;;;-144.30;47.61;83570.00;5069092;28;20196;-61
2023/09/22 09:40:40;;;;;;;13.55;5.38;;;;;;;-144.30;47.69;83556.09;5067550;28;20196;-55
2023/09/22 09:43:10;;;;;;;7.93;5.35;;;;;;;-144.30;47.21;83552.13;5069121;28;20200;-55
2023/09/22 09:45:43;;;;;;;15.15;5.32;;;;;;;-144.30;46.99;83530.25;5068677;28;20199;-55
2023/09/22 09:48:14;;;;;;;7.05;5.10;;;;;;;-144.30;46.75;83508.41;5068607;28;20736;-55
2023/09/22 09:50:45;;;;;;;7.75;5.30;;;;;;;-144.30;46.58;83389.19;5068726;28;20200;-55
2023/09/22 09:53:22;;;;;;;9.75;4.90;;;;;;;-144.30;46.34;83512.38;5068881;28;20196;-55
2023/09/22 09:55:52;;;;;;;6.57;4.68;;;;;;;-144.30;45.85;83667.34;5068846;28;20195;-54
2023/09/22 09:58:22;;;;;;;7.63;4.78;;;;;;;-144.30;45.85;83494.50;5066089;28;20277;-55
2023/09/22 10:00:50;;;;;;;17.33;4.75;;;;;;;-144.30;45.76;83486.56;5068863;28;20192;-55
2023/09/22 10:03:22;;;;;;;10.57;4.93;;;;;;;-144.30;45.72;83309.72;5068371;28;20199;-55
2023/09/22 10:05:51;;;;;;;11.40;5.13;;;;;;;-144.30;45.40;83405.09;5068846;28;20196;-56
2023/09/22 10:08:20;;;;;;;9.05;5.22;;;;;;;-144.30;45.21;83452.78;5066778;28;20207;-56
2023/09/22 10:10:49;;;;;;;5.63;5.13;;;;;;;-144.30;45.01;83355.41;5067708;28;20207;-56
2023/09/22 10:13:17;;;;;;;8.10;5.10;;;;;;;-144.30;44.83;83413.03;5068645;28;20203;-63
2023/09/22 10:15:53;;;;;;;12.07;5.28;;;;;;;-144.30;45.21;83407.06;5065061;28;20201;-64
2023/09/22 10:18:21;;;;;;;12.45;5.10;;;;;;;-144.30;45.09;83399.13;5066565;28;20239;-63
2023/09/22 10:20:49;;;;;;;8.82;5.15;;;;;;;-144.30;44.72;83313.69;5067816;28;20195;-63
2023/09/22 10:23:19;;;;;;;8.02;4.70;;;;;;;-144.30;44.64;83333.56;5066192;28;20210;-55
2023/09/22 10:26:14;;;;;;;5.25;4.75;;;;;;;-144.30;44.69;83345.50;5068127;28;20202;-56
2023/09/22 10:28:41;;;;;;;7.57;5.13;;;;;;;-144.30;44.74;83393.16;5048251;28;20270;-63
2023/09/22 10:31:08;;;;;;;9.85;4.60;;;;;;;-144.30;44.72;83337.53;5047959;28;20218;-63
2023/09/22 10:33:36;;;;;;;7.18;5.38;;;;;;;-144.30;44.69;83369.34;5061160;28;20208;-56
2023/09/22 10:36:04;;;;;;;9.93;5.13;;;;;;;-144.30;44.74;83311.72;5063878;28;20200;-55
2023/09/22 10:38:52;;;;;;;6.35;4.60;;;;;;;-144.30;44.29;83351.44;5067913;28;20286;-63
2023/09/22 10:41:19;;;;;;;10.80;5.07;;;;;;;-144.30;43.97;83329.59;5065647;28;20590;-59
2023/09/22 10:43:57;;;;;;;13.23;5.10;;;;;;;-144.30;44.20;83329.59;5071274;28;20196;-61
2023/09/22 10:46:25;;;;;;;6.43;4.40;;;;;;;-144.30;43.48;83297.81;5067361;28;20245;-61
2023/09/22 10:48:52;;;;;;;9.10;4.95;;;;;;;-144.30;43.31;83299.78;5071123;28;20192;-55
2023/09/22 10:51:22;;;;;;;5.18;4.70;;;;;;;-144.30;43.31;83313.69;5068489;28;20672;-55
2023/09/22 10:54:00;;;;;;;5.93;4.63;;;;;;;-144.30;43.97;83351.44;5071657;28;20231;-55
2023/09/22 10:56:28;;;;;;;13.23;5.03;;;;;;;-144.30;44.00;83335.56;5069101;28;20223;-62
2023/09/22 10:58:55;;;;;;;10.65;5.07;;;;;;;-144.30;44.08;83307.75;5070792;28;20196;-61
2023/09/22 11:01:22;;;;;;;5.85;5.25;;;;;;;-144.30;44.23;83240.19;5071532;28;20278;-61
2023/09/22 11:03:53;;;;;;;9.32;4.60;;;;;;;-144.30;43.73;83319.66;5070982;28;20203;-61
2023/09/22 11:06:20;;;;;;;6.10;4.43;;;;;;;-144.30;43.17;83325.63;5068104;28;20202;-60
2023/09/22 11:08:49;;;;;;;5.50;4.43;;;;;;;-144.30;42.88;83252.09;5070844;28;20196;-54
2023/09/22 11:11:17;;;;;;;8.93;5.10;;;;;;;-144.30;42.14;83309.72;5065833;28;20209;-55
2023/09/22 11:13:52;;;;;;;10.95;4.63;;;;;;;-144.30;42.25;83268.00;5070824;28;20200;-57
2023/09/22 11:16:20;;;;;;;7.53;4.63;;;;;;;-144.30;42.26;83242.19;5070668;28;20557;-55
2023/09/22 11:18:48;;;;;;;9.93;4.00;;;;;;;-144.30;42.29;83293.84;5070279;28;20236;-58